Time;durP1;ratioP1;P1;durP2;ratioP2;P2;SDS_P1;SDS_P2;PMS_P1;PMS_P2;Temp;Humidity;BMP_temperature;BMP_pressure;BME280_temperature;BME280_humidity;BME280_pressure;Samples;Min_cycle;Max_cycle;Signal;HPM_P1;HPM_P2
2023/04/26 00:01:04;;;;;;;3.70;3.50;;;;;;;2.58;95.91;101341.72;7789096;18;20681;-71
2023/04/26 00:03:31;;;;;;;3.83;3.63;;;;;;;2.56;96.30;101348.66;7788754;18;20030;-71
2023/04/26 00:06:05;;;;;;;3.90;3.70;;;;;;;2.03;96.75;101264.50;7787559;18;19994;-73
2023/04/26 00:08:31;;;;;;;3.25;3.15;;;;;;;2.34;97.16;101314.31;7789662;18;20053;-70
2023/04/26 00:10:58;;;;;;;4.38;4.07;;;;;;;2.48;97.55;101347.88;7788580;18;20149;-71
2023/04/26 00:13:24;;;;;;;3.40;3.30;;;;;;;2.40;97.81;101341.00;7744998;18;20002;-73
2023/04/26 00:15:51;;;;;;;4.05;3.85;;;;;;;1.17;97.79;101137.47;7748361;18;20008;-73
2023/04/26 00:18:17;;;;;;;3.70;3.45;;;;;;;2.06;97.72;101287.78;7788240;18;20008;-71
2023/04/26 00:20:44;;;;;;;4.43;4.05;;;;;;;2.31;98.71;101332.47;7785327;18;20015;-71
2023/04/26 00:23:10;;;;;;;3.47;3.35;;;;;;;2.34;98.68;101333.28;7789094;18;20038;-72
2023/04/26 00:25:37;;;;;;;3.80;3.60;;;;;;;2.26;98.98;101337.66;7789300;18;20006;-73
2023/04/26 00:28:03;;;;;;;4.18;3.78;;;;;;;2.19;99.12;101333.44;7793519;18;20078;-71
2023/04/26 00:30:30;;;;;;;3.70;3.30;;;;;;;2.11;99.84;101333.47;7795989;18;20006;-73
2023/04/26 00:32:57;;;;;;;4.65;3.45;;;;;;;1.89;100.00;101306.88;7793615;18;19990;-72
2023/04/26 00:35:23;;;;;;;3.00;2.90;;;;;;;1.97;100.00;101325.78;7790397;18;20541;-72
2023/04/26 00:37:50;;;;;;;4.00;3.80;;;;;;;2.02;100.00;101323.16;7748679;18;20068;-71
2023/04/26 00:40:16;;;;;;;3.70;3.55;;;;;;;1.94;100.00;101325.81;7788805;18;19998;-72
2023/04/26 00:42:43;;;;;;;3.78;3.58;;;;;;;1.32;100.00;101223.56;7790120;18;20006;-72
2023/04/26 00:45:09;;;;;;;4.20;3.97;;;;;;;1.84;100.00;101316.38;7789250;18;20010;-73
2023/04/26 00:47:36;;;;;;;3.15;3.05;;;;;;;1.88;100.00;101323.25;7791149;18;19998;-72
2023/04/26 00:50:03;;;;;;;3.30;3.20;;;;;;;1.84;100.00;101325.88;7789176;18;20077;-71
2023/04/26 00:52:30;;;;;;;4.05;3.72;;;;;;;1.89;100.00;101337.94;7791026;18;19998;-71
2023/04/26 00:54:57;;;;;;;5.43;5.03;;;;;;;1.81;100.00;101318.16;7789108;18;20006;-71
2023/04/26 00:57:24;;;;;;;3.42;3.33;;;;;;;1.64;100.00;101306.16;7791504;18;20000;-72
2023/04/26 00:59:51;;;;;;;4.93;4.63;;;;;;;1.50;100.00;101272.59;7789838;18;20010;-72
2023/04/26 01:02:17;;;;;;;3.50;3.40;;;;;;;1.42;100.00;101258.84;7790218;18;20426;-71
2023/04/26 01:04:44;;;;;;;3.80;3.63;;;;;;;1.78;100.00;101325.06;7748335;18;20010;-72
2023/04/26 01:07:11;;;;;;;3.17;3.08;;;;;;;1.79;100.00;101329.34;7791976;18;19998;-74
2023/04/26 01:09:38;;;;;;;4.07;3.78;;;;;;;1.78;100.00;101325.06;7790942;18;20005;-72
2023/04/26 01:12:06;;;;;;;5.47;4.00;;;;;;;1.72;100.00;101327.66;7790540;18;20004;-73
2023/04/26 01:14:35;;;;;;;3.55;3.45;;;;;;;1.69;100.00;101329.44;7790831;18;20060;-72
2023/04/26 01:17:02;;;;;;;3.67;3.47;;;;;;;1.65;100.00;101326.00;7790789;18;20010;-70
2023/04/26 01:19:29;;;;;;;4.70;4.30;;;;;;;1.60;100.00;101325.16;7789735;18;20081;-71
2023/04/26 01:21:55;;;;;;;3.80;3.60;;;;;;;1.31;100.00;101279.59;7788793;18;20060;-72
2023/04/26 01:24:22;;;;;;;3.70;3.50;;;;;;;1.47;100.00;101314.00;7790340;18;20021;-71
2023/04/26 01:26:48;;;;;;;3.63;3.42;;;;;;;0.66;100.00;101190.25;7790598;18;20603;-72
2023/04/26 01:29:16;;;;;;;4.15;3.95;;;;;;;1.42;100.00;101318.31;7790238;18;20214;-71
2023/04/26 01:31:44;;;;;;;3.63;3.50;;;;;;;1.40;100.00;101320.06;7790222;18;19994;-71
2023/04/26 01:34:10;;;;;;;3.58;3.38;;;;;;;1.01;100.00;101265.06;7790805;18;20008;-72
2023/04/26 01:36:37;;;;;;;3.90;3.70;;;;;;;0.83;100.00;101234.13;7791772;18;20016;-73
2023/04/26 01:39:04;;;;;;;4.15;3.85;;;;;;;1.26;100.00;101312.34;7749718;18;20025;-73
2023/04/26 01:41:31;;;;;;;4.25;4.00;;;;;;;1.21;100.00;101313.25;7790557;18;20002;-73
2023/04/26 01:43:58;;;;;;;4.18;3.97;;;;;;;0.56;100.00;101229.03;7789940;18;20008;-71
2023/04/26 01:46:24;;;;;;;4.10;3.80;;;;;;;1.17;100.00;101307.25;7790448;18;20422;-71
2023/04/26 01:48:51;;;;;;;3.92;3.63;;;;;;;0.62;100.00;101222.97;7789087;18;20081;-72
2023/04/26 01:51:18;;;;;;;3.72;3.53;;;;;;;1.07;100.00;101303.81;7791246;18;20465;-71
2023/04/26 01:53:44;;;;;;;4.13;3.88;;;;;;;1.03;100.00;101299.53;7789106;18;20769;-71
2023/04/26 01:56:10;;;;;;;3.45;3.30;;;;;;;1.01;100.00;101297.81;7749403;18;20056;-71
2023/04/26 01:58:37;;;;;;;3.13;3.03;;;;;;;0.55;100.00;101229.91;7790029;18;20066;-71
2023/04/26 02:01:06;;;;;;;3.35;3.25;;;;;;;0.94;100.00;101289.22;7789956;18;20675;-70
2023/04/26 02:03:32;;;;;;;4.05;3.78;;;;;;;0.61;100.00;101246.25;7799028;18;20014;-71
2023/04/26 02:05:59;;;;;;;4.90;4.50;;;;;;;0.89;100.00;101289.22;7749684;18;19994;-71
2023/04/26 02:08:25;;;;;;;3.50;3.40;;;;;;;0.87;100.00;101290.09;7789856;18;19998;-72
2023/04/26 02:10:52;;;;;;;4.85;4.55;;;;;;;0.27;100.00;101200.69;7790118;18;20533;-71
2023/04/26 02:13:18;;;;;;;3.78;3.58;;;;;;;0.83;100.00;101316.81;7789499;18;20215;-70
2023/04/26 02:15:46;;;;;;;3.83;3.63;;;;;;;0.85;100.00;101284.94;7790410;18;20014;-72
2023/04/26 02:18:12;;;;;;;4.10;3.90;;;;;;;0.79;100.00;101296.13;7789849;18;19994;-73
2023/04/26 02:20:43;;;;;;;3.30;3.15;;;;;;;0.12;100.00;101196.44;7789903;18;20010;-72
2023/04/26 02:23:12;;;;;;;3.25;3.15;;;;;;;0.34;100.00;101224.75;7788428;18;19998;-71
2023/04/26 02:25:40;;;;;;;3.80;3.58;;;;;;;0.15;100.00;101177.50;7790607;18;20005;-71
2023/04/26 02:28:07;;;;;;;3.88;3.63;;;;;;;0.70;100.00;101279.78;7789165;18;20022;-71
2023/04/26 02:30:33;;;;;;;3.60;3.40;;;;;;;0.31;100.00;101215.31;7748482;18;20018;-71
2023/04/26 02:32:59;;;;;;;4.38;4.03;;;;;;;0.61;100.00;101260.03;7789293;18;20002;-71
2023/04/26 02:35:26;;;;;;;3.70;3.50;;;;;;;0.54;100.00;101251.44;7748323;18;20061;-71
2023/04/26 02:37:55;;;;;;;4.28;3.88;;;;;;;0.09;100.00;101177.50;7786932;18;20002;-71
2023/04/26 02:40:21;;;;;;;4.55;4.25;;;;;;;0.43;100.00;101239.41;7789521;18;20018;-70
2023/04/26 02:42:48;;;;;;;4.43;4.13;;;;;;;-0.25;100.00;101131.09;7787771;18;20002;-71
2023/04/26 02:45:15;;;;;;;3.53;3.33;;;;;;;0.50;100.00;101264.34;7790495;18;20009;-71
2023/04/26 02:47:41;;;;;;;3.42;3.22;;;;;;;0.46;100.00;101265.19;7789486;18;20002;-71
2023/04/26 02:50:08;;;;;;;3.47;3.28;;;;;;;0.15;100.00;101213.63;7792370;18;20005;-70
2023/04/26 02:52:35;;;;;;;3.83;3.63;;;;;;;0.32;100.00;101250.59;7790168;18;20002;-71
2023/04/26 02:55:03;;;;;;;4.38;4.00;;;;;;;0.11;100.00;101211.91;7747941;18;20056;-72
2023/04/26 02:57:32;;;;;;;4.45;4.25;;;;;;;0.30;100.00;101262.66;7748729;18;19994;-72
2023/04/26 03:00:01;;;;;;;4.18;3.97;;;;;;;0.21;100.00;101251.47;7787358;18;20000;-72
2023/04/26 03:02:27;;;;;;;3.75;3.55;;;;;;;0.19;100.00;101256.63;7789458;18;20425;-73
2023/04/26 03:04:54;;;;;;;4.68;4.38;;;;;;;0.22;100.00;101264.38;7746716;18;20083;-70
2023/04/26 03:07:21;;;;;;;3.65;3.50;;;;;;;-0.27;100.00;101185.25;7789044;18;20010;-70
2023/04/26 03:09:47;;;;;;;4.38;4.07;;;;;;;-0.57;100.00;101131.94;7747712;18;19998;-71
2023/04/26 03:12:14;;;;;;;3.90;3.63;;;;;;;0.20;100.00;101258.34;7789873;18;20014;-70
2023/04/26 03:14:40;;;;;;;4.20;4.00;;;;;;;0.21;100.00;101257.50;7790002;18;20000;-71
2023/04/26 03:17:07;;;;;;;3.33;3.20;;;;;;;0.24;100.00;101260.09;7749223;18;20010;-71
2023/04/26 03:19:33;;;;;;;3.88;3.60;;;;;;;0.24;100.00;101267.81;7789230;18;19994;-72
2023/04/26 03:22:00;;;;;;;3.88;3.67;;;;;;;0.25;100.00;101290.19;7790382;18;20372;-71
2023/04/26 03:24:26;;;;;;;3.20;3.10;;;;;;;-0.65;100.00;101116.47;7787001;18;20004;-72
2023/04/26 03:26:53;;;;;;;3.30;3.20;;;;;;;0.20;100.00;101258.34;7791395;18;19994;-71
2023/04/26 03:29:19;;;;;;;3.90;3.70;;;;;;;-0.66;100.00;101124.19;7802584;18;20074;-71
2023/04/26 03:31:45;;;;;;;3.47;3.28;;;;;;;0.10;100.00;101249.75;7795801;18;20093;-71
2023/04/26 03:34:12;;;;;;;4.20;3.90;;;;;;;0.17;100.00;101260.94;7790388;18;20017;-71
2023/04/26 03:36:38;;;;;;;4.43;4.18;;;;;;;-0.01;100.00;101247.16;7793638;18;20028;-71
2023/04/26 03:39:05;;;;;;;3.67;3.53;;;;;;;-1.24;100.00;101021.97;7789206;18;20545;-71
2023/04/26 03:41:32;;;;;;;3.33;3.22;;;;;;;0.14;100.00;101259.22;7790258;18;20296;-71
2023/04/26 03:43:58;;;;;;;4.13;3.85;;;;;;;0.12;100.00;101262.66;7749040;18;20402;-71
2023/04/26 03:46:25;;;;;;;3.65;3.45;;;;;;;0.06;100.00;101270.38;7789510;18;20018;-71
2023/04/26 03:48:51;;;;;;;3.92;3.72;;;;;;;-1.38;100.00;101054.53;7788638;18;20057;-71
2023/04/26 03:51:18;;;;;;;25.67;24.15;;;;;;;-0.59;100.00;101174.91;7705020;18;20039;-70
2023/04/26 03:53:47;;;;;;;3.85;3.65;;;;;;;-0.47;100.00;101197.28;7674012;18;20008;-72
2023/04/26 03:56:14;;;;;;;3.17;3.08;;;;;;;-0.11;100.00;101272.97;7789138;18;20017;-72
2023/04/26 03:58:41;;;;;;;3.97;3.72;;;;;;;-0.16;100.00;101267.81;7788632;18;20615;-71
2023/04/26 04:01:07;;;;;;;3.50;3.30;;;;;;;-0.45;100.00;101218.75;7789392;18;20056;-72
2023/04/26 04:03:34;;;;;;;3.55;3.35;;;;;;;-0.20;100.00;101271.25;7788796;18;20010;-72
2023/04/26 04:06:02;;;;;;;3.15;3.05;;;;;;;-0.23;100.00;101276.38;7788999;18;20024;-72
2023/04/26 04:08:29;;;;;;;4.00;3.80;;;;;;;-0.26;100.00;101281.53;7788279;18;20002;-72
2023/04/26 04:10:55;;;;;;;4.55;4.35;;;;;;;-0.27;100.00;101270.34;7788868;18;20006;-73
2023/04/26 04:13:22;;;;;;;3.40;3.30;;;;;;;-0.27;100.00;101272.94;7788060;18;20002;-73
2023/04/26 04:15:48;;;;;;;3.30;3.10;;;;;;;-0.27;100.00;101272.94;7789402;18;19994;-72
2023/04/26 04:18:15;;;;;;;4.25;3.95;;;;;;;-0.25;100.00;101272.94;7788484;18;20059;-72
2023/04/26 04:20:42;;;;;;;4.10;3.80;;;;;;;-0.26;100.00;101274.66;7787736;18;20057;-72
2023/04/26 04:23:09;;;;;;;4.20;3.58;;;;;;;-0.23;100.00;101281.53;7789232;18;20070;-71
2023/04/26 04:25:36;;;;;;;3.00;2.90;;;;;;;-0.22;100.00;101291.88;7786808;18;20056;-71
2023/04/26 04:28:02;;;;;;;2.88;2.78;;;;;;;-0.99;100.00;101169.66;7789017;18;20572;-71
2023/04/26 04:30:29;;;;;;;4.50;3.28;;;;;;;-0.17;100.00;101291.03;7789784;18;20057;-71
2023/04/26 04:32:58;;;;;;;3.40;3.30;;;;;;;-1.83;100.00;101005.50;7787918;18;20024;-71
2023/04/26 04:35:27;;;;;;;3.13;2.95;;;;;;;-0.31;100.00;101260.03;7790185;18;20002;-71
2023/04/26 04:37:57;;;;;;;3.88;3.67;;;;;;;-1.45;100.00;101058.81;7787159;18;20005;-69
2023/04/26 04:40:25;;;;;;;2.97;2.88;;;;;;;-0.16;100.00;101267.81;7789016;18;20660;-69
2023/04/26 04:42:52;;;;;;;3.40;3.20;;;;;;;0.09;100.00;101302.22;7788991;18;19998;-70
2023/04/26 04:45:19;;;;;;;3.25;3.15;;;;;;;0.16;100.00;101306.53;7789861;18;20006;-72
2023/04/26 04:47:45;;;;;;;3.63;3.42;;;;;;;-0.53;100.00;101168.91;7788811;18;20498;-69
2023/04/26 04:50:13;;;;;;;4.35;3.15;;;;;;;0.82;100.00;101307.34;7787537;18;20089;-69
2023/04/26 04:52:40;;;;;;;7.80;5.55;;;;;;;1.47;100.00;101326.09;7788617;18;20494;-69
2023/04/26 04:55:06;;;;;;;7.20;6.22;;;;;;;1.74;100.00;101310.41;7787824;18;20066;-69
2023/04/26 04:57:33;;;;;;;14.40;5.63;;;;;;;2.56;100.00;101346.06;7789888;18;20021;-69
2023/04/26 05:00:07;;;;;;;8.63;6.85;;;;;;;3.10;100.00;101359.38;7787383;18;20017;-72
2023/04/26 05:02:34;;;;;;;9.80;5.72;;;;;;;2.92;100.00;101261.91;7789905;18;19998;-71
2023/04/26 05:05:03;;;;;;;6.88;6.13;;;;;;;3.95;100.00;101374.78;7787788;18;20925;-73
2023/04/26 05:07:33;;;;;;;4.40;4.15;;;;;;;4.44;100.00;101385.34;7788889;18;21670;-69
2023/04/26 05:10:00;;;;;;;8.10;5.25;;;;;;;4.63;100.00;101384.16;7786810;18;19998;-71
2023/04/26 05:12:26;;;;;;;5.18;4.72;;;;;;;4.94;100.00;101386.22;7788403;18;20009;-70
2023/04/26 05:14:53;;;;;;;5.72;5.25;;;;;;;4.08;100.00;101175.47;7787030;18;20387;-69
2023/04/26 05:17:20;;;;;;;5.93;5.35;;;;;;;5.59;100.00;101362.41;7789602;18;20141;-72
2023/04/26 05:19:47;;;;;;;4.72;4.40;;;;;;;5.97;99.51;101350.34;7746693;18;20002;-72
2023/04/26 05:22:17;;;;;;;4.45;4.15;;;;;;;3.98;95.57;100946.25;7787370;18;20604;-72
2023/04/26 05:24:46;;;;;;;5.35;4.88;;;;;;;6.69;91.04;101316.44;7789370;18;20032;-71
2023/04/26 05:27:13;;;;;;;5.13;4.82;;;;;;;6.96;86.68;101294.00;7789734;18;20027;-71
2023/04/26 05:29:40;;;;;;;5.15;4.75;;;;;;;6.83;83.29;101201.31;7789454;18;19998;-71
2023/04/26 05:32:06;;;;;;;6.10;5.32;;;;;;;7.48;80.90;101236.81;7749843;18;20415;-73
2023/04/26 05:34:33;;;;;;;4.85;4.55;;;;;;;7.71;77.87;101210.81;7790207;18;20591;-71
2023/04/26 05:37:00;;;;;;;11.98;5.07;;;;;;;7.52;74.95;101136.56;7791255;18;19998;-71
2023/04/26 05:39:26;;;;;;;7.40;4.47;;;;;;;7.72;74.55;101143.75;7789518;18;20006;-72
2023/04/26 05:41:52;;;;;;;5.55;5.05;;;;;;;7.95;73.27;101149.03;7790603;18;20079;-69
2023/04/26 05:44:19;;;;;;;8.05;4.88;;;;;;;7.65;71.26;101096.06;7790037;18;20009;-69
2023/04/26 05:46:46;;;;;;;5.22;4.82;;;;;;;7.83;71.47;101107.66;7791344;18;20478;-69
2023/04/26 05:49:12;;;;;;;5.63;5.13;;;;;;;7.90;70.91;101103.09;7789995;18;19994;-73
2023/04/26 05:51:38;;;;;;;10.70;5.15;;;;;;;7.98;70.68;101111.50;7790845;18;20482;-69
2023/04/26 05:54:05;;;;;;;5.28;4.78;;;;;;;7.77;69.74;101082.56;7790017;18;20006;-70
2023/04/26 05:56:31;;;;;;;6.25;5.68;;;;;;;6.98;69.61;100994.72;7789910;18;20003;-73
2023/04/26 05:58:58;;;;;;;6.03;5.60;;;;;;;5.77;72.59;101004.38;7789521;18;20540;-70
2023/04/26 06:01:24;;;;;;;5.68;5.13;;;;;;;6.21;73.15;101111.75;7790159;18;20425;-70
2023/04/26 06:03:51;;;;;;;6.10;5.60;;;;;;;6.07;73.92;101101.69;7789579;18;19997;-70
2023/04/26 06:06:21;;;;;;;9.75;6.05;;;;;;;6.18;74.25;101123.13;7750909;18;20001;-70
2023/04/26 06:08:48;;;;;;;6.45;5.43;;;;;;;5.26;75.55;101078.56;7788923;18;20007;-70
2023/04/26 06:11:14;;;;;;;7.07;5.05;;;;;;;5.42;76.36;101140.66;7790376;18;20002;-70
2023/04/26 06:13:40;;;;;;;6.03;5.38;;;;;;;5.60;77.71;101179.28;7790802;18;20010;-70
2023/04/26 06:16:08;;;;;;;6.55;6.03;;;;;;;5.83;78.18;101188.28;7790401;18;20005;-69
2023/04/26 06:18:34;;;;;;;5.15;4.82;;;;;;;6.04;77.60;101206.00;7747980;18;20544;-70
2023/04/26 06:21:00;;;;;;;5.43;5.03;;;;;;;5.92;77.77;101186.28;7789882;18;20082;-70
2023/04/26 06:23:27;;;;;;;13.02;7.05;;;;;;;5.75;77.62;101162.41;7790465;18;20063;-70
2023/04/26 06:25:53;;;;;;;6.20;5.60;;;;;;;5.75;77.61;101193.66;7790147;18;20412;-70
2023/04/26 06:28:22;;;;;;;4.95;4.65;;;;;;;6.17;78.13;101238.69;7793746;18;20297;-69
2023/04/26 06:30:48;;;;;;;21.00;6.15;;;;;;;6.41;79.00;101249.38;7798106;18;19994;-70
2023/04/26 06:33:15;;;;;;;5.00;4.70;;;;;;;6.48;78.56;101242.25;7791145;18;19998;-70
2023/04/26 06:35:41;;;;;;;5.75;5.25;;;;;;;6.76;77.50;101247.59;7792015;18;20212;-70
2023/04/26 06:38:08;;;;;;;6.07;5.47;;;;;;;6.97;76.46;101228.69;7789705;18;20021;-71
2023/04/26 06:40:36;;;;;;;5.90;5.40;;;;;;;5.68;74.97;101030.66;7750549;18;20002;-70
2023/04/26 06:43:02;;;;;;;6.32;5.82;;;;;;;7.02;75.06;101201.63;7789587;18;20674;-71
2023/04/26 06:45:29;;;;;;;9.48;6.07;;;;;;;6.34;75.15;101076.63;7791360;18;19998;-70
2023/04/26 06:47:56;;;;;;;5.70;5.20;;;;;;;7.12;73.97;101190.88;7789665;18;20014;-71
2023/04/26 06:50:23;;;;;;;9.57;5.97;;;;;;;7.04;75.00;101182.41;7791232;18;20002;-71
2023/04/26 06:52:50;;;;;;;6.28;5.63;;;;;;;7.18;74.06;101187.22;7790043;18;20566;-71
2023/04/26 06:55:17;;;;;;;5.10;4.80;;;;;;;7.04;72.52;101148.50;7789556;18;20020;-70
2023/04/26 06:57:44;;;;;;;4.78;4.47;;;;;;;6.91;72.87;101127.13;7789463;18;20033;-71
2023/04/26 07:00:11;;;;;;;5.88;5.30;;;;;;;6.76;73.19;101114.56;7788881;18;20441;-70
2023/04/26 07:02:38;;;;;;;6.40;5.93;;;;;;;6.28;74.36;101149.78;7789739;18;20447;-71
2023/04/26 07:05:05;;;;;;;6.50;5.68;;;;;;;6.87;74.97;101205.53;7788261;18;20056;-70
2023/04/26 07:07:31;;;;;;;8.23;6.03;;;;;;;6.98;74.78;101201.72;7789815;18;20017;-70
2023/04/26 07:09:58;;;;;;;10.38;5.28;;;;;;;7.50;74.11;101220.19;7792094;18;20064;-70
2023/04/26 07:12:24;;;;;;;6.47;5.85;;;;;;;7.76;73.95;101216.75;7750480;18;19994;-70
2023/04/26 07:14:51;;;;;;;8.85;5.60;;;;;;;7.61;73.13;101185.88;7792921;18;20032;-69
2023/04/26 07:17:17;;;;;;;8.57;6.53;;;;;;;7.91;74.18;101212.78;7792610;18;20010;-70
2023/04/26 07:19:43;;;;;;;11.55;6.10;;;;;;;7.12;73.40;101109.13;7793110;18;20010;-70
2023/04/26 07:22:10;;;;;;;5.68;5.22;;;;;;;7.35;73.70;101178.88;7751101;18;20053;-70
2023/04/26 07:24:37;;;;;;;5.68;5.22;;;;;;;7.82;72.87;101213.09;7791496;18;20006;-68
2023/04/26 07:27:03;;;;;;;6.57;5.63;;;;;;;7.98;72.00;101169.84;7791788;18;20009;-71
2023/04/26 07:29:30;;;;;;;5.00;4.70;;;;;;;7.76;70.29;101103.56;7791014;18;20005;-69
2023/04/26 07:31:57;;;;;;;5.97;5.15;;;;;;;7.31;69.50;100965.78;7792341;18;20070;-70
2023/04/26 07:34:24;;;;;;;6.88;6.28;;;;;;;8.23;68.90;101094.94;7791421;18;20018;-70
2023/04/26 07:36:51;;;;;;;5.07;4.75;;;;;;;7.93;67.45;101046.31;7791191;18;19998;-70
2023/04/26 07:39:17;;;;;;;5.60;5.20;;;;;;;7.10;69.46;101014.34;7789122;18;20067;-72
2023/04/26 07:41:43;;;;;;;4.97;4.68;;;;;;;6.15;70.17;100937.31;7789931;18;20090;-72
2023/04/26 07:44:10;;;;;;;5.63;5.22;;;;;;;6.98;69.88;101008.63;7789632;18;20005;-72
2023/04/26 07:46:36;;;;;;;7.57;5.57;;;;;;;8.03;69.44;101095.66;7789682;18;20009;-72
2023/04/26 07:49:03;;;;;;;4.50;4.30;;;;;;;7.63;66.62;101022.13;7788750;18;20649;-72
2023/04/26 07:51:30;;;;;;;6.13;5.10;;;;;;;6.62;66.80;100861.16;7789847;18;19998;-71
2023/04/26 07:53:57;;;;;;;4.43;4.22;;;;;;;8.08;66.67;101039.69;7787729;18;20065;-72
2023/04/26 07:56:23;;;;;;;6.78;4.45;;;;;;;6.95;63.75;100746.94;7791318;18;20012;-72
2023/04/26 07:58:50;;;;;;;4.93;4.45;;;;;;;6.83;64.56;100802.19;7749621;18;20002;-71
2023/04/26 08:01:16;;;;;;;7.07;4.50;;;;;;;6.49;66.06;100811.16;7789561;18;20510;-71
2023/04/26 08:03:43;;;;;;;5.03;4.50;;;;;;;7.89;64.85;100944.56;7788675;18;20006;-71
2023/04/26 08:06:10;;;;;;;8.93;4.88;;;;;;;8.33;64.54;100965.56;7790046;18;19994;-72
2023/04/26 08:08:43;;;;;;;4.78;4.47;;;;;;;8.79;62.37;100930.63;7790660;18;20068;-71
2023/04/26 08:11:09;;;;;;;4.72;4.32;;;;;;;8.26;60.87;100763.63;7789496;18;20008;-71
2023/04/26 08:13:36;;;;;;;4.10;3.90;;;;;;;8.07;60.43;100794.06;7747954;18;20450;-71
2023/04/26 08:16:03;;;;;;;6.30;4.85;;;;;;;8.12;60.64;100813.88;7788495;18;20009;-71
2023/04/26 08:18:29;;;;;;;8.00;4.78;;;;;;;7.87;59.30;100679.88;7789071;18;20060;-71
2023/04/26 08:20:56;;;;;;;4.80;4.53;;;;;;;8.75;59.17;100786.88;7789011;18;20025;-72
2023/04/26 08:23:22;;;;;;;5.20;4.80;;;;;;;9.02;58.71;100805.78;7788963;18;20018;-71
2023/04/26 08:25:49;;;;;;;6.45;4.68;;;;;;;7.89;60.54;100725.09;7748322;18;20014;-71
2023/04/26 08:28:15;;;;;;;6.68;6.18;;;;;;;8.24;63.40;100911.00;7786084;18;20002;-72
2023/04/26 08:30:42;;;;;;;4.97;4.57;;;;;;;8.60;61.60;100872.13;7788526;18;20017;-71
2023/04/26 08:33:09;;;;;;;4.75;4.55;;;;;;;8.78;60.53;100849.56;7788547;18;20021;-71
2023/04/26 08:35:35;;;;;;;4.32;4.13;;;;;;;8.02;60.16;100743.72;7788913;18;19998;-71
2023/04/26 08:38:02;;;;;;;5.35;4.85;;;;;;;8.09;61.61;100827.06;7789312;18;19998;-71
2023/04/26 08:40:28;;;;;;;12.55;5.13;;;;;;;8.29;59.84;100747.81;7788216;18;20002;-71
2023/04/26 08:42:55;;;;;;;4.43;4.15;;;;;;;9.00;59.36;100836.41;7788357;18;20787;-71
2023/04/26 08:45:22;;;;;;;16.77;5.30;;;;;;;8.84;58.60;100733.28;7747875;18;20084;-71
2023/04/26 08:47:50;;;;;;;5.30;4.88;;;;;;;8.69;58.01;100691.19;7747744;18;20077;-73
2023/04/26 08:50:22;;;;;;;4.40;4.20;;;;;;;9.65;57.38;100781.97;7787997;18;20002;-73
2023/04/26 08:52:50;;;;;;;5.45;5.03;;;;;;;10.04;57.35;100819.47;7788177;18;20006;-73
2023/04/26 08:55:18;;;;;;;4.78;4.50;;;;;;;10.25;55.14;100734.50;7788642;18;20002;-71
2023/04/26 08:57:48;;;;;;;4.53;4.32;;;;;;;10.47;54.19;100697.56;7748814;18;20056;-71
2023/04/26 09:00:18;;;;;;;5.40;4.60;;;;;;;10.56;53.65;100681.34;7790842;18;20038;-72
2023/04/26 09:02:50;;;;;;;5.40;4.90;;;;;;;10.92;54.18;100730.19;7839025;18;20001;-70
2023/04/26 09:05:25;;;;;;;5.82;5.15;;;;;;;9.65;54.04;100550.53;7749436;18;19994;-71
2023/04/26 09:07:56;;;;;;;5.25;4.85;;;;;;;9.13;56.28;100643.81;7840980;18;20013;-71
2023/04/26 09:10:22;;;;;;;6.65;5.03;;;;;;;9.86;55.56;100729.44;7793739;18;20060;-71
2023/04/26 09:12:54;;;;;;;4.82;4.53;;;;;;;9.41;54.53;100563.09;7839025;18;20065;-71
2023/04/26 09:15:22;;;;;;;4.38;4.18;;;;;;;9.60;55.13;100668.66;7786003;18;19994;-71
2023/04/26 09:17:50;;;;;;;5.13;4.70;;;;;;;9.79;54.15;100655.50;7837391;18;20068;-72
2023/04/26 09:20:25;;;;;;;5.20;4.80;;;;;;;9.89;53.83;100609.56;7748679;18;20064;-71
2023/04/26 09:22:53;;;;;;;4.50;4.30;;;;;;;10.30;54.01;100666.09;7837443;18;20025;-70
2023/04/26 09:25:28;;;;;;;4.93;4.63;;;;;;;9.32;52.61;100418.59;7790573;18;20430;-72
2023/04/26 09:27:56;;;;;;;5.25;4.95;;;;;;;10.26;52.48;100546.50;7838394;18;20002;-71
2023/04/26 09:30:23;;;;;;;5.32;4.82;;;;;;;9.73;53.07;100493.34;7787650;18;20049;-71
2023/04/26 09:32:52;;;;;;;5.10;4.80;;;;;;;9.31;54.12;100513.78;7837104;18;20006;-71
2023/04/26 09:35:24;;;;;;;5.93;5.22;;;;;;;9.30;55.46;100609.00;7748717;18;20102;-71
2023/04/26 09:38:03;;;;;;;4.88;4.57;;;;;;;8.80;55.93;100567.75;7837516;18;20024;-71
2023/04/26 09:40:39;;;;;;;4.82;4.53;;;;;;;9.39;55.46;100657.47;7789273;18;20675;-71
2023/04/26 09:43:09;;;;;;;5.20;4.90;;;;;;;9.08;55.61;100624.00;7793710;18;20001;-71
2023/04/26 09:46:02;;;;;;;4.20;4.00;;;;;;;8.89;53.73;100556.00;7789697;18;20510;-71
2023/04/26 09:48:33;;;;;;;5.18;4.78;;;;;;;9.06;54.03;100595.31;7829033;18;20008;-71
2023/04/26 09:51:05;;;;;;;9.27;5.05;;;;;;;10.58;52.73;100746.84;7789775;18;19994;-71
2023/04/26 09:53:37;;;;;;;6.15;4.38;;;;;;;10.13;50.60;100546.31;7838564;18;19998;-71
2023/04/26 09:56:17;;;;;;;6.07;4.72;;;;;;;10.36;50.94;100582.69;7790701;18;20013;-71
2023/04/26 09:58:50;;;;;;;6.70;4.43;;;;;;;10.96;50.64;100652.97;7838444;18;20021;-71
2023/04/26 10:01:18;;;;;;;4.40;4.20;;;;;;;10.52;50.68;100614.22;7791195;18;20002;-71
2023/04/26 10:03:45;;;;;;;4.72;4.43;;;;;;;10.42;50.05;100536.06;7837703;18;20009;-71
2023/04/26 10:06:13;;;;;;;5.15;4.85;;;;;;;10.75;49.46;100602.47;7789254;18;20530;-72
2023/04/26 10:08:39;;;;;;;4.80;4.50;;;;;;;10.77;48.39;100540.22;7836729;18;19997;-70
2023/04/26 10:11:06;;;;;;;5.25;4.95;;;;;;;11.48;47.20;100561.63;7791094;18;20005;-71
2023/04/26 10:13:34;;;;;;;4.70;4.40;;;;;;;11.55;45.96;100521.75;7838434;18;20505;-71
2023/04/26 10:16:03;;;;;;;4.75;4.55;;;;;;;11.57;47.14;100582.97;7791387;18;19994;-71
2023/04/26 10:18:30;;;;;;;4.80;4.60;;;;;;;11.10;46.33;100517.41;7837598;18;19994;-71
2023/04/26 10:21:13;;;;;;;5.78;5.38;;;;;;;9.97;47.56;100438.78;7791675;18;20006;-71
2023/04/26 10:23:40;;;;;;;4.90;4.60;;;;;;;9.82;47.55;100457.94;7838977;18;19993;-71
2023/04/26 10:26:46;;;;;;;5.00;4.70;;;;;;;10.76;48.08;100638.28;7791653;18;20009;-70
2023/04/26 10:29:12;;;;;;;4.82;4.63;;;;;;;10.95;46.62;100584.78;7836284;18;20049;-72
2023/04/26 10:32:08;;;;;;;5.38;4.88;;;;;;;10.94;47.70;100632.94;7788078;18;19994;-70
2023/04/26 10:34:37;;;;;;;5.10;4.70;;;;;;;10.48;48.02;100593.44;7835932;18;20061;-71
2023/04/26 10:37:10;;;;;;;4.93;4.63;;;;;;;10.28;48.32;100586.59;7790783;18;20584;-70
2023/04/26 10:39:38;;;;;;;4.88;4.57;;;;;;;9.67;47.41;100452.56;7835373;18;19994;-70
2023/04/26 10:42:27;;;;;;;5.43;5.03;;;;;;;10.69;47.65;100659.69;7792695;18;20014;-71
2023/04/26 10:44:58;;;;;;;5.07;4.70;;;;;;;9.66;49.00;100560.09;7797470;18;20392;-71
2023/04/26 10:47:31;;;;;;;5.05;4.75;;;;;;;9.69;49.91;100628.06;7791776;18;20068;-70
2023/04/26 10:50:09;;;;;;;7.32;4.85;;;;;;;9.93;49.55;100683.66;7836344;18;20052;-69
2023/04/26 10:52:38;;;;;;;9.55;4.80;;;;;;;9.22;49.72;100552.66;7754712;18;20002;-70
2023/04/26 10:55:05;;;;;;;5.43;5.05;;;;;;;10.34;47.97;100650.13;7850201;18;19994;-71
2023/04/26 10:57:50;;;;;;;5.35;4.95;;;;;;;10.27;48.06;100671.47;7752189;18;20004;-72
2023/04/26 11:00:24;;;;;;;7.63;4.80;;;;;;;10.93;47.50;100747.66;7788752;18;20060;-71
2023/04/26 11:03:05;;;;;;;5.25;4.80;;;;;;;10.93;45.47;100592.72;7790773;18;19998;-71
2023/04/26 11:05:59;;;;;;;4.75;4.45;;;;;;;10.88;46.59;100631.50;7793464;18;20012;-72
2023/04/26 11:08:28;;;;;;;4.93;4.63;;;;;;;11.55;46.01;100746.97;7753021;18;20002;-70
2023/04/26 11:11:04;;;;;;;4.82;4.60;;;;;;;11.62;46.79;100758.81;7796041;18;19990;-71
2023/04/26 11:13:32;;;;;;;5.57;5.07;;;;;;;11.83;45.83;100754.16;7748297;18;20068;-71
2023/04/26 11:16:04;;;;;;;5.50;5.10;;;;;;;11.56;44.91;100657.47;7791462;18;20064;-70
2023/04/26 11:18:32;;;;;;;5.40;4.78;;;;;;;11.49;44.75;100636.91;7791177;18;20006;-71
2023/04/26 11:20:58;;;;;;;5.82;5.28;;;;;;;11.76;45.58;100753.63;7787902;18;20005;-71
2023/04/26 11:23:27;;;;;;;5.32;4.82;;;;;;;10.81;45.80;100611.78;7788035;18;20000;-70
2023/04/26 11:26:04;;;;;;;16.60;5.38;;;;;;;11.40;45.54;100703.97;7790424;18;20005;-71
2023/04/26 11:28:32;;;;;;;5.20;4.90;;;;;;;10.46;46.84;100613.66;7788811;18;19994;-70
2023/04/26 11:31:01;;;;;;;5.05;4.60;;;;;;;11.22;46.57;100779.38;7789510;18;20563;-72